• Join FlightAware (Why Join?)
  • Login
  • US Flag 
04:10AM EDT


 

Airport Tracker/Info


-or-


 

Live Flight TrackerFlight Track Log ✈ SKW4632 ✈ 17-Aug-2013 ✈ KSLC - KMSO

Flight Track Log - Related Links

Times and Time Zones

All times are in EDT time to prevent confusion due to time zone crossing. See the SKW4632 flight status page for this flight to view local times or setup timezone preferences in your user account.

Time Position Orientation Groundspeed Altitude Reporting Facility
EDT Latitude Longitude Course Direction KTS MPH feet Rate Location/Type
01:11PM 40.7778 -111.9975 50° Northeast 163 188 4,800  Level Salt Lake Center
01:13PM 40.7575 -112.0731 251° West 231 266 7,200 1,620 Climbing Salt Lake Center
01:14PM 40.8228 -112.1194 332° Northwest 280 322 8,900 1,740 Climbing Salt Lake Center
01:15PM 41.0198 -112.0969 37° Northeast  Level FlightAware Approximate
01:15PM 40.9044 -112.1453 347° North 304 350 10,800  Level Salt Lake Center
01:16PM 41.1021 -111.9872 50° Northeast  Level FlightAware Approximate
01:16PM 40.9889 -112.1700 348° North 308 354 12,700  Level Salt Lake Center
01:17PM 41.1832 -111.8597 50° Northeast  Level FlightAware Approximate
01:17PM 41.0933 -112.2031 347° North 327 376 14,900  Level Salt Lake Center
01:18PM 41.1828 -112.2294 347° North 328 377 16,700 1,560 Climbing Salt Lake Center
01:19PM 41.2739 -112.2564 347° North 335 386 18,200 1,500 Climbing Salt Lake Center
01:20PM 41.3667 -112.2828 348° North 339 390 19,900 1,380 Climbing Salt Lake Center
01:21PM 41.4611 -112.3117 347° North 347 399 21,100 1,140 Climbing Salt Lake Center
01:22PM 41.5583 -112.3408 347° North 358 412 22,300 1,080 Climbing Salt Lake Center
01:23PM 41.6594 -112.3711 347° North 371 427 23,400 1,200 Climbing Salt Lake Center
01:24PM 41.7833 -112.4072 348° North 380 437 24,800 1,080 Climbing Salt Lake Center
01:25PM 41.8856 -112.4408 346° North 379 436 25,700 960 Climbing Salt Lake Center
01:26PM 41.9947 -112.4703 349° North 395 455 26,800 900 Climbing Salt Lake Center
01:27PM 42.1008 -112.5036 347° North 394 453 27,600 720 Climbing Salt Lake Center
01:28PM 42.2111 -112.5356 348° North 402 463 28,400 720 Climbing Salt Lake Center
01:29PM 42.3208 -112.5706 347° North 406 467 29,200 780 Climbing Salt Lake Center
01:30PM 42.4564 -112.6103 348° North 414 476 30,100 660 Climbing Salt Lake Center
01:31PM 42.5689 -112.6450 347° North 413 475 30,600 480 Climbing Salt Lake Center
01:33PM 42.6831 -112.6814 347° North 422 486 31,100 480 Climbing Salt Lake Center
01:34PM 42.8044 -112.7167 348° North 428 493 31,700 420 Climbing Salt Lake Center
01:35PM 42.9161 -112.7514 347° North 427 491 32,000 120 Climbing Salt Lake Center
01:36PM 43.0483 -112.7939 347° North 435 501 32,000  Level Salt Lake Center
01:37PM 43.1608 -112.8292 347° North 433 498 32,000  Level Salt Lake Center
01:38PM 43.2897 -112.8686 347° North 425 489 32,000  Level Salt Lake Center
01:39PM 43.4000 -112.9028 347° North 422 486 32,000  Level Salt Lake Center
01:40PM 43.5267 -112.9436 347° North 421 484 32,000  Level Salt Lake Center
01:41PM 43.6342 -112.9764 348° North 414 476 32,000  Level Salt Lake Center
01:42PM 43.7628 -113.0186 347° North 420 483 32,000  Level Salt Lake Center
01:43PM 43.8708 -113.0533 347° North 417 480 32,000  Level Salt Lake Center
01:44PM 43.9972 -113.0939 347° North 419 482 32,000  Level Salt Lake Center
01:45PM 44.1075 -113.1294 347° North 423 487 32,000  Level Salt Lake Center
01:46PM 44.2147 -113.1650 347° North 417 480 32,000  Level Salt Lake Center
01:47PM 44.3417 -113.2061 347° North 418 481 32,000  Level Salt Lake Center
01:48PM 44.4519 -113.2425 347° North 422 486 32,000  Level Salt Lake Center
01:49PM 44.5772 -113.2839 347° North 417 480 32,000  Level Salt Lake Center
01:50PM 44.6881 -113.3197 347° North 421 484 32,000  Level Salt Lake Center
01:51PM 44.8161 -113.3617 347° North 422 486 32,000  Level Salt Lake Center
01:52PM 44.9244 -113.3989 346° North 419 482 32,000  Level Salt Lake Center
01:53PM 45.0533 -113.4411 347° North 423 487 32,000  Level Salt Lake Center
01:54PM 45.1647 -113.4783 347° North 427 491 32,000  Level Salt Lake Center
01:55PM 45.2950 -113.5219 347° North 430 495 32,000 -360 Level Salt Lake Center
01:56PM 45.3986 -113.5575 346° North 425 489 31,300 -1,440 Descending Salt Lake Center
01:57PM 45.5144 -113.5978 346° North 426 490 29,100 -2,220 Descending Salt Lake Center
01:58PM 45.6308 -113.6347 347° North 411 473 26,800 -2,160 Descending Salt Lake Center
01:59PM 45.7358 -113.6711 346° North 394 453 24,700 -2,100 Descending Salt Lake Center
02:00PM 45.8361 -113.7058 346° North 378 435 22,500 -2,220 Descending Salt Lake Center
02:01PM 45.9511 -113.7475 346° North 359 413 20,200 -2,040 Descending Salt Lake Center
02:03PM 46.0417 -113.7772 347° North 341 392 18,400 -1,740 Descending Salt Lake Center
02:04PM 46.1264 -113.8083 346° North 323 372 16,700 -1,680 Descending Salt Lake Center
02:05PM 46.2181 -113.8383 347° North 311 358 15,000 -840 Descending Salt Lake Center
02:06PM 46.2944 -113.8658 346° North 285 328 15,000  Level Salt Lake Center
02:07PM 46.3700 -113.8928 346° North 263 303 15,000 -840 Level Salt Lake Center
02:08PM 46.4400 -113.9186 346° North 262 302 13,300 -1,980 Descending Salt Lake Center
02:09PM 46.5244 -113.9483 346° North 289 333 11,000 -1,980 Descending Salt Lake Center
02:10PM 46.6025 -113.9761 346° North 290 334 9,300 -1,260 Descending Salt Lake Center
02:11PM 46.6750 -114.0036 345° North 252 290 8,400 -960 Descending Salt Lake Center
02:12PM 46.7331 -114.0247 346° North 216 249 7,400 -1,260 Descending Salt Lake Center
02:13PM 46.7908 -114.0469 345° North 199 229 5,900 -1,260 Descending Salt Lake Center
02:14PM 46.8394 -114.0339 10° North 181 208 4,900 -1,020 Descending Salt Lake Center
02:15PM 46.8842 -114.0364 358° North 155 178 3,900 -840 Descending Salt Lake Center
02:16PM 46.9094 -114.0808 310° West 143 165 3,200 -720 Descending Salt Lake Center